sensor_id;sensor_type;location;lat;lon;timestamp;pressure;altitude;pressure_sealevel;temperature;humidity
35519;BME280;21627;48.216;16.482;2022-09-11T00:01:37;99686.22;;;15.76;96.81
35519;BME280;21627;48.216;16.482;2022-09-11T00:04:06;99681.06;;;15.73;96.35
35519;BME280;21627;48.216;16.482;2022-09-11T00:06:35;99659.56;;;15.62;96.12
35519;BME280;21627;48.216;16.482;2022-09-11T00:09:06;99675.88;;;15.71;96.21
35519;BME280;21627;48.216;16.482;2022-09-11T00:11:41;99677.63;;;15.71;96.89
35519;BME280;21627;48.216;16.482;2022-09-11T00:14:11;99684.59;;;15.69;97.15
35519;BME280;21627;48.216;16.482;2022-09-11T00:16:43;99666.38;;;15.67;96.93
35519;BME280;21627;48.216;16.482;2022-09-11T00:19:17;99672.47;;;15.68;97.07
35519;BME280;21627;48.216;16.482;2022-09-11T00:21:45;99666.53;;;15.59;97.41
35519;BME280;21627;48.216;16.482;2022-09-11T00:24:13;99669.88;;;15.66;97.01
35519;BME280;21627;48.216;16.482;2022-09-11T00:26:40;99674.19;;;15.67;97.32
35519;BME280;21627;48.216;16.482;2022-09-11T00:29:09;99676.03;;;15.64;97.23
35519;BME280;21627;48.216;16.482;2022-09-11T00:31:37;99676.03;;;15.64;97.79
35519;BME280;21627;48.216;16.482;2022-09-11T00:34:04;99664.91;;;15.55;97.63
35519;BME280;21627;48.216;16.482;2022-09-11T00:36:33;99661.34;;;15.59;97.62
35519;BME280;21627;48.216;16.482;2022-09-11T00:39:02;99663.16;;;15.56;98.51
35519;BME280;21627;48.216;16.482;2022-09-11T00:41:41;99653.66;;;15.53;98.88
35519;BME280;21627;48.216;16.482;2022-09-11T00:47:01;99656.28;;;15.53;98.93
35519;BME280;21627;48.216;16.482;2022-09-11T00:50:13;99663.91;;;15.63;98.92
35519;BME280;21627;48.216;16.482;2022-09-11T00:52:55;99654.44;;;15.57;98.85
35519;BME280;21627;48.216;16.482;2022-09-11T00:55:31;99660.53;;;15.57;98.93
35519;BME280;21627;48.216;16.482;2022-09-11T00:58:11;99665.88;;;15.51;100.00
35519;BME280;21627;48.216;16.482;2022-09-11T01:00:43;99669.28;;;15.55;99.98
35519;BME280;21627;48.216;16.482;2022-09-11T01:03:11;99635.66;;;15.43;100.00
35519;BME280;21627;48.216;16.482;2022-09-11T01:05:40;99660.53;;;15.57;100.00
35519;BME280;21627;48.216;16.482;2022-09-11T01:08:09;99666.53;;;15.59;100.00
35519;BME280;21627;48.216;16.482;2022-09-11T01:11:30;99658.69;;;15.61;100.00
35519;BME280;21627;48.216;16.482;2022-09-11T01:16:57;99647.50;;;15.57;100.00
35519;BME280;21627;48.216;16.482;2022-09-11T01:20:21;99657.75;;;15.65;100.00
35519;BME280;21627;48.216;16.482;2022-09-11T01:26:08;99650.72;;;15.69;100.00
35519;BME280;21627;48.216;16.482;2022-09-11T01:31:39;99652.44;;;15.71;100.00
35519;BME280;21627;48.216;16.482;2022-09-11T01:37:04;99657.69;;;15.68;100.00
35519;BME280;21627;48.216;16.482;2022-09-11T01:39:44;99646.44;;;15.65;100.00
35519;BME280;21627;48.216;16.482;2022-09-11T01:42:18;99643.97;;;15.60;100.00
35519;BME280;21627;48.216;16.482;2022-09-11T01:44:51;99657.69;;;15.68;100.00
35519;BME280;21627;48.216;16.482;2022-09-11T01:47:20;99649.81;;;15.71;100.00
35519;BME280;21627;48.216;16.482;2022-09-11T01:49:59;99652.41;;;15.73;100.00
35519;BME280;21627;48.216;16.482;2022-09-11T01:52:59;99645.56;;;15.66;100.00
35519;BME280;21627;48.216;16.482;2022-09-11T01:55:39;99650.81;;;15.64;100.00
35519;BME280;21627;48.216;16.482;2022-09-11T01:58:14;99651.66;;;15.65;100.00
35519;BME280;21627;48.216;16.482;2022-09-11T02:00:49;99661.06;;;15.73;100.00
35519;BME280;21627;48.216;16.482;2022-09-11T02:03:24;99646.41;;;15.68;100.00
35519;BME280;21627;48.216;16.482;2022-09-11T02:06:00;99654.16;;;15.72;100.00
35519;BME280;21627;48.216;16.482;2022-09-11T02:08:52;99642.03;;;15.68;100.00
35519;BME280;21627;48.216;16.482;2022-09-11T02:11:20;99652.44;;;15.70;100.00
35519;BME280;21627;48.216;16.482;2022-09-11T02:19:00;99652.25;;;15.79;100.00
35519;BME280;21627;48.216;16.482;2022-09-11T02:21:33;99650.50;;;15.79;100.00
35519;BME280;21627;48.216;16.482;2022-09-11T02:24:00;99638.53;;;15.72;100.00
35519;BME280;21627;48.216;16.482;2022-09-11T02:26:31;99639.31;;;15.74;100.00
35519;BME280;21627;48.216;16.482;2022-09-11T02:29:02;99626.50;;;15.64;100.00
35519;BME280;21627;48.216;16.482;2022-09-11T02:31:29;99641.91;;;15.76;100.00
35519;BME280;21627;48.216;16.482;2022-09-11T02:33:57;99634.06;;;15.76;100.00
35519;BME280;21627;48.216;16.482;2022-09-11T02:57:09;99634.94;;;15.76;100.00
35519;BME280;21627;48.216;16.482;2022-09-11T02:59:58;99632.38;;;15.75;100.00
35519;BME280;21627;48.216;16.482;2022-09-11T03:02:32;99636.72;;;15.74;100.00
35519;BME280;21627;48.216;16.482;2022-09-11T03:05:00;99630.75;;;15.68;100.00
35519;BME280;21627;48.216;16.482;2022-09-11T03:07:28;99633.31;;;15.72;100.00
35519;BME280;21627;48.216;16.482;2022-09-11T03:09:59;99625.56;;;15.66;100.00
35519;BME280;21627;48.216;16.482;2022-09-11T03:12:26;99632.38;;;15.75;100.00
35519;BME280;21627;48.216;16.482;2022-09-11T03:14:53;99634.81;;;15.83;98.81
35519;BME280;21627;48.216;16.482;2022-09-11T03:17:21;99638.25;;;15.83;98.65
35519;BME280;21627;48.216;16.482;2022-09-11T03:19:48;99639.19;;;15.81;99.96
35519;BME280;21627;48.216;16.482;2022-09-11T03:22:16;99634.81;;;15.81;100.00
35519;BME280;21627;48.216;16.482;2022-09-11T03:24:43;99630.53;;;15.78;100.00
35519;BME280;21627;48.216;16.482;2022-09-11T03:27:10;99631.41;;;15.79;100.00
35519;BME280;21627;48.216;16.482;2022-09-11T03:29:41;99628.00;;;15.75;100.00
35519;BME280;21627;48.216;16.482;2022-09-11T03:32:08;99614.22;;;15.69;99.29
35519;BME280;21627;48.216;16.482;2022-09-11T03:34:36;99642.56;;;15.84;98.71
35519;BME280;21627;48.216;16.482;2022-09-11T03:37:03;99635.72;;;15.80;99.33
35519;BME280;21627;48.216;16.482;2022-09-11T03:39:33;99636.53;;;15.82;99.12
35519;BME280;21627;48.216;16.482;2022-09-11T03:42:00;99622.00;;;15.72;99.69
35519;BME280;21627;48.216;16.482;2022-09-11T03:44:28;99630.53;;;15.78;99.94
35519;BME280;21627;48.216;16.482;2022-09-11T03:46:55;99635.75;;;15.78;98.92
35519;BME280;21627;48.216;16.482;2022-09-11T03:49:23;99625.50;;;15.71;99.57
35519;BME280;21627;48.216;16.482;2022-09-11T03:51:50;99635.84;;;15.74;99.87
35519;BME280;21627;48.216;16.482;2022-09-11T03:54:18;99644.50;;;15.76;99.69
35519;BME280;21627;48.216;16.482;2022-09-11T03:56:47;99636.53;;;15.82;98.63
35519;BME280;21627;48.216;16.482;2022-09-11T03:59:14;99615.94;;;15.71;98.75
35519;BME280;21627;48.216;16.482;2022-09-11T04:01:41;99635.75;;;15.78;98.95
35519;BME280;21627;48.216;16.482;2022-09-11T04:04:08;99629.81;;;15.72;99.42
35519;BME280;21627;48.216;16.482;2022-09-11T04:06:36;99630.69;;;15.72;99.05
35519;BME280;21627;48.216;16.482;2022-09-11T04:09:06;99637.50;;;15.78;98.81
35519;BME280;21627;48.216;16.482;2022-09-11T04:11:34;99638.44;;;15.75;99.10
35519;BME280;21627;48.216;16.482;2022-09-11T04:14:06;99627.34;;;15.66;99.11
35519;BME280;21627;48.216;16.482;2022-09-11T04:16:33;99640.25;;;15.72;99.46
35519;BME280;21627;48.216;16.482;2022-09-11T04:19:02;99635.97;;;15.68;99.41
35519;BME280;21627;48.216;16.482;2022-09-11T04:21:32;99626.34;;;15.71;99.24
35519;BME280;21627;48.216;16.482;2022-09-11T04:24:04;99633.34;;;15.69;99.93
35519;BME280;21627;48.216;16.482;2022-09-11T04:26:32;99639.47;;;15.67;100.00
35519;BME280;21627;48.216;16.482;2022-09-11T04:28:59;99637.78;;;15.64;100.00
35519;BME280;21627;48.216;16.482;2022-09-11T04:31:27;99627.41;;;15.63;99.81
35519;BME280;21627;48.216;16.482;2022-09-11T04:33:55;99629.97;;;15.64;99.77
35519;BME280;21627;48.216;16.482;2022-09-11T04:36:24;99637.75;;;15.66;100.00
35519;BME280;21627;48.216;16.482;2022-09-11T04:38:57;99618.84;;;15.57;100.00
35519;BME280;21627;48.216;16.482;2022-09-11T04:41:27;99620.72;;;15.51;100.00
35519;BME280;21627;48.216;16.482;2022-09-11T04:43:56;99625.78;;;15.57;100.00
35519;BME280;21627;48.216;16.482;2022-09-11T04:46:30;99635.06;;;15.69;99.31
35519;BME280;21627;48.216;16.482;2022-09-11T04:48:58;99616.97;;;15.63;100.00
35519;BME280;21627;48.216;16.482;2022-09-11T04:51:34;99631.72;;;15.64;100.00
35519;BME280;21627;48.216;16.482;2022-09-11T04:54:03;99623.06;;;15.62;100.00
35519;BME280;21627;48.216;16.482;2022-09-11T04:56:34;99633.50;;;15.62;100.00
35519;BME280;21627;48.216;16.482;2022-09-11T04:59:25;99625.56;;;15.66;100.00
35519;BME280;21627;48.216;16.482;2022-09-11T05:01:52;99636.06;;;15.63;100.00
35519;BME280;21627;48.216;16.482;2022-09-11T05:04:24;99616.00;;;15.67;100.00
35519;BME280;21627;48.216;16.482;2022-09-11T05:06:52;99624.66;;;15.70;100.00
35519;BME280;21627;48.216;16.482;2022-09-11T05:09:25;99638.53;;;15.72;100.00
35519;BME280;21627;48.216;16.482;2022-09-11T05:11:53;99632.41;;;15.72;100.00
35519;BME280;21627;48.216;16.482;2022-09-11T05:14:20;99625.41;;;15.75;100.00
35519;BME280;21627;48.216;16.482;2022-09-11T05:16:48;99625.31;;;15.80;99.71
35519;BME280;21627;48.216;16.482;2022-09-11T05:19:15;99633.88;;;15.85;97.64
35519;BME280;21627;48.216;16.482;2022-09-11T05:21:42;99620.13;;;15.78;98.23
35519;BME280;21627;48.216;16.482;2022-09-11T05:24:10;99618.44;;;15.76;99.64
35519;BME280;21627;48.216;16.482;2022-09-11T05:26:37;99628.72;;;15.82;100.00
35519;BME280;21627;48.216;16.482;2022-09-11T05:29:09;99636.53;;;15.82;100.00
35519;BME280;21627;48.216;16.482;2022-09-11T05:31:37;99633.88;;;15.85;100.00
35519;BME280;21627;48.216;16.482;2022-09-11T05:34:06;99637.00;;;15.99;97.83
35519;BME280;21627;48.216;16.482;2022-09-11T05:36:36;99639.66;;;15.98;97.86
35519;BME280;21627;48.216;16.482;2022-09-11T05:39:03;99631.00;;;15.96;98.59
35519;BME280;21627;48.216;16.482;2022-09-11T05:41:31;99642.94;;;16.05;98.51
35519;BME280;21627;48.216;16.482;2022-09-11T05:43:58;99628.28;;;16.00;99.44
35519;BME280;21627;48.216;16.482;2022-09-11T05:46:25;99636.06;;;16.02;99.30
35519;BME280;21627;48.216;16.482;2022-09-11T05:48:52;99644.59;;;16.09;96.89
35519;BME280;21627;48.216;16.482;2022-09-11T05:51:21;99634.28;;;16.04;96.16
35519;BME280;21627;48.216;16.482;2022-09-11T05:53:54;99636.84;;;16.06;97.19
35519;BME280;21627;48.216;16.482;2022-09-11T05:56:24;99634.28;;;16.04;98.24
35519;BME280;21627;48.216;16.482;2022-09-11T05:58:51;99644.63;;;16.07;99.02
35519;BME280;21627;48.216;16.482;2022-09-11T06:01:22;99650.56;;;16.14;98.31
35519;BME280;21627;48.216;16.482;2022-09-11T06:03:49;99642.00;;;16.09;98.70
35519;BME280;21627;48.216;16.482;2022-09-11T06:06:19;99649.78;;;16.10;98.24
35519;BME280;21627;48.216;16.482;2022-09-11T06:08:50;99641.28;;;16.02;98.20
35519;BME280;21627;48.216;16.482;2022-09-11T06:11:20;99658.41;;;16.12;97.84
35519;BME280;21627;48.216;16.482;2022-09-11T06:13:48;99653.25;;;16.11;97.80
35519;BME280;21627;48.216;16.482;2022-09-11T06:16:22;99659.97;;;16.19;97.38
35519;BME280;21627;48.216;16.482;2022-09-11T06:18:51;99657.44;;;16.18;97.85
35519;BME280;21627;48.216;16.482;2022-09-11T06:21:23;99647.97;;;16.12;99.96
35519;BME280;21627;48.216;16.482;2022-09-11T06:23:53;99664.34;;;16.19;97.87
35519;BME280;21627;48.216;16.482;2022-09-11T06:26:23;99658.38;;;16.15;99.37
35519;BME280;21627;48.216;16.482;2022-09-11T06:28:54;99663.59;;;16.14;98.21
35519;BME280;21627;48.216;16.482;2022-09-11T06:31:24;99666.31;;;16.09;98.45
35519;BME280;21627;48.216;16.482;2022-09-11T06:33:53;99657.72;;;16.06;99.28
35519;BME280;21627;48.216;16.482;2022-09-11T06:36:24;99672.28;;;16.14;99.49
35519;BME280;21627;48.216;16.482;2022-09-11T06:38:54;99667.13;;;16.13;98.48
35519;BME280;21627;48.216;16.482;2022-09-11T06:41:23;99665.31;;;16.15;99.28
35519;BME280;21627;48.216;16.482;2022-09-11T06:43:52;99676.50;;;16.20;99.86
35519;BME280;21627;48.216;16.482;2022-09-11T06:46:24;99660.97;;;16.15;100.00
35519;BME280;21627;48.216;16.482;2022-09-11T06:48:52;99663.53;;;16.17;100.00
35519;BME280;21627;48.216;16.482;2022-09-11T06:51:22;99678.06;;;16.27;99.15
35519;BME280;21627;48.216;16.482;2022-09-11T06:53:57;99668.66;;;16.20;99.37
35519;BME280;21627;48.216;16.482;2022-09-11T06:56:24;99675.63;;;16.21;100.00
35519;BME280;21627;48.216;16.482;2022-09-11T06:58:52;99673.84;;;16.21;100.00
35519;BME280;21627;48.216;16.482;2022-09-11T07:01:21;99677.28;;;16.23;100.00
35519;BME280;21627;48.216;16.482;2022-09-11T07:03:51;99673.69;;;16.28;100.00
35519;BME280;21627;48.216;16.482;2022-09-11T07:06:25;99659.88;;;16.24;100.00
35519;BME280;21627;48.216;16.482;2022-09-11T07:08:55;99676.28;;;16.29;99.18
35519;BME280;21627;48.216;16.482;2022-09-11T07:11:29;99685.03;;;16.27;100.00
35519;BME280;21627;48.216;16.482;2022-09-11T07:14:01;99681.66;;;16.23;100.00
35519;BME280;21627;48.216;16.482;2022-09-11T07:16:35;99686.00;;;16.22;100.00
35519;BME280;21627;48.216;16.482;2022-09-11T07:19:02;99678.22;;;16.21;100.00
35519;BME280;21627;48.216;16.482;2022-09-11T07:21:31;99682.59;;;16.19;100.00
35519;BME280;21627;48.216;16.482;2022-09-11T07:24:02;99690.41;;;16.20;100.00
35519;BME280;21627;48.216;16.482;2022-09-11T07:26:30;99684.28;;;16.21;100.00
35519;BME280;21627;48.216;16.482;2022-09-11T07:28:58;99685.94;;;16.26;100.00
35519;BME280;21627;48.216;16.482;2022-09-11T07:31:29;99686.91;;;16.20;100.00
35519;BME280;21627;48.216;16.482;2022-09-11T07:33:59;99693.94;;;16.18;100.00
35519;BME280;21627;48.216;16.482;2022-09-11T07:36:31;99675.75;;;16.15;100.00
35519;BME280;21627;48.216;16.482;2022-09-11T07:38:59;99675.75;;;16.15;100.00
35519;BME280;21627;48.216;16.482;2022-09-11T07:41:27;99683.47;;;16.19;100.00
35519;BME280;21627;48.216;16.482;2022-09-11T07:43:57;99687.81;;;16.20;100.00
35519;BME280;21627;48.216;16.482;2022-09-11T07:46:25;99700.78;;;16.23;100.00
35519;BME280;21627;48.216;16.482;2022-09-11T07:48:56;99693.81;;;16.22;100.00
35519;BME280;21627;48.216;16.482;2022-09-11T07:51:23;99672.25;;;16.16;100.00
35519;BME280;21627;48.216;16.482;2022-09-11T07:53:55;99697.97;;;16.31;100.00
35519;BME280;21627;48.216;16.482;2022-09-11T07:56:26;99694.38;;;16.35;100.00
35519;BME280;21627;48.216;16.482;2022-09-11T07:58:54;99700.38;;;16.39;100.00
35519;BME280;21627;48.216;16.482;2022-09-11T08:01:25;99696.03;;;16.39;100.00
35519;BME280;21627;48.216;16.482;2022-09-11T08:03:58;99699.34;;;16.46;100.00
35519;BME280;21627;48.216;16.482;2022-09-11T08:06:29;99698.41;;;16.49;100.00
35519;BME280;21627;48.216;16.482;2022-09-11T08:09:03;99699.16;;;16.54;100.00
35519;BME280;21627;48.216;16.482;2022-09-11T08:11:34;99700.81;;;16.56;100.00
35519;BME280;21627;48.216;16.482;2022-09-11T08:14:02;99700.53;;;16.67;100.00
35519;BME280;21627;48.216;16.482;2022-09-11T08:16:30;99703.91;;;16.72;100.00
35519;BME280;21627;48.216;16.482;2022-09-11T08:19:00;99689.03;;;16.76;100.00
35519;BME280;21627;48.216;16.482;2022-09-11T08:21:31;99684.50;;;16.82;100.00
35519;BME280;21627;48.216;16.482;2022-09-11T08:23:59;99682.53;;;16.91;100.00
35519;BME280;21627;48.216;16.482;2022-09-11T08:26:29;99696.28;;;16.99;100.00
35519;BME280;21627;48.216;16.482;2022-09-11T08:28:57;99683.94;;;17.04;98.80
35519;BME280;21627;48.216;16.482;2022-09-11T08:31:26;99690.75;;;17.09;99.69
35519;BME280;21627;48.216;16.482;2022-09-11T08:33:55;99689.56;;;17.21;100.00
35519;BME280;21627;48.216;16.482;2022-09-11T08:36:26;99695.22;;;17.36;96.73
35519;BME280;21627;48.216;16.482;2022-09-11T08:38:54;99687.97;;;17.45;97.40
35519;BME280;21627;48.216;16.482;2022-09-11T08:42:01;99690.03;;;17.64;93.49
35519;BME280;21627;48.216;16.482;2022-09-11T08:44:54;99695.00;;;17.73;92.26
35519;BME280;21627;48.216;16.482;2022-09-11T08:47:29;99690.47;;;17.80;93.95
35519;BME280;21627;48.216;16.482;2022-09-11T08:50:19;99693.75;;;17.86;90.48
35519;BME280;21627;48.216;16.482;2022-09-11T08:52:48;99698.81;;;17.92;89.50
35519;BME280;21627;48.216;16.482;2022-09-11T08:58:46;99698.09;;;17.87;87.27
35519;BME280;21627;48.216;16.482;2022-09-11T09:17:19;99691.25;;;18.38;84.43
35519;BME280;21627;48.216;16.482;2022-09-11T09:20:10;99667.16;;;18.27;83.88
35519;BME280;21627;48.216;16.482;2022-09-11T09:25:21;99681.91;;;18.29;85.29
35519;BME280;21627;48.216;16.482;2022-09-11T09:28:37;99699.75;;;18.45;86.40
35519;BME280;21627;48.216;16.482;2022-09-11T09:31:10;99695.59;;;18.64;87.81
35519;BME280;21627;48.216;16.482;2022-09-11T09:34:27;99697.72;;;18.79;82.30
35519;BME280;21627;48.216;16.482;2022-09-11T09:37:16;99697.63;;;18.83;83.43
35519;BME280;21627;48.216;16.482;2022-09-11T09:39:46;99697.19;;;18.95;83.21
35519;BME280;21627;48.216;16.482;2022-09-11T09:47:47;99689.88;;;19.28;84.11
35519;BME280;21627;48.216;16.482;2022-09-11T09:50:32;99690.41;;;19.38;85.47
35519;BME280;21627;48.216;16.482;2022-09-11T09:56:04;99709.94;;;19.29;78.56
35519;BME280;21627;48.216;16.482;2022-09-11T09:58:38;99713.00;;;19.17;78.17
35519;BME280;21627;48.216;16.482;2022-09-11T10:04:15;99704.25;;;18.93;79.21
35519;BME280;21627;48.216;16.482;2022-09-11T10:06:45;99700.53;;;18.73;79.95
35519;BME280;21627;48.216;16.482;2022-09-11T10:09:27;99701.69;;;18.65;80.03
35519;BME280;21627;48.216;16.482;2022-09-11T10:12:02;99705.44;;;18.57;82.55
35519;BME280;21627;48.216;16.482;2022-09-11T10:14:59;99714.59;;;18.44;83.07
35519;BME280;21627;48.216;16.482;2022-09-11T10:22:50;99711.16;;;18.15;92.87
35519;BME280;21627;48.216;16.482;2022-09-11T10:25:23;99695.66;;;18.09;96.34
35519;BME280;21627;48.216;16.482;2022-09-11T10:28:12;99709.41;;;18.16;98.21
35519;BME280;21627;48.216;16.482;2022-09-11T10:30:59;99706.75;;;18.17;100.00
35519;BME280;21627;48.216;16.482;2022-09-11T10:36:03;99701.03;;;18.05;100.00
35519;BME280;21627;48.216;16.482;2022-09-11T10:43:58;99695.44;;;18.17;100.00
35519;BME280;21627;48.216;16.482;2022-09-11T10:46:34;99695.25;;;18.22;100.00
35519;BME280;21627;48.216;16.482;2022-09-11T10:49:21;99696.63;;;18.33;100.00
35519;BME280;21627;48.216;16.482;2022-09-11T10:57:29;99689.50;;;18.90;97.47
35519;BME280;21627;48.216;16.482;2022-09-11T11:00:28;99683.63;;;18.84;94.12
35519;BME280;21627;48.216;16.482;2022-09-11T11:03:10;99678.50;;;18.80;94.62
35519;BME280;21627;48.216;16.482;2022-09-11T11:12:14;99679.84;;;19.16;87.45
35519;BME280;21627;48.216;16.482;2022-09-11T11:15:15;99666.06;;;19.34;86.88
35519;BME280;21627;48.216;16.482;2022-09-11T11:21:03;99687.63;;;19.64;87.00
35519;BME280;21627;48.216;16.482;2022-09-11T11:27:48;99684.50;;;19.55;83.21
35519;BME280;21627;48.216;16.482;2022-09-11T11:30:09;99689.06;;;19.50;85.84
35519;BME280;21627;48.216;16.482;2022-09-11T11:33:05;99683.94;;;19.46;86.06
35519;BME280;21627;48.216;16.482;2022-09-11T11:41:21;99673.41;;;19.48;87.18
35519;BME280;21627;48.216;16.482;2022-09-11T11:43:50;99677.69;;;19.51;87.09
35519;BME280;21627;48.216;16.482;2022-09-11T11:46:34;99679.44;;;19.50;82.90
35519;BME280;21627;48.216;16.482;2022-09-11T11:52:23;99681.00;;;19.56;82.53
35519;BME280;21627;48.216;16.482;2022-09-11T11:57:37;99671.97;;;19.86;85.49
35519;BME280;21627;48.216;16.482;2022-09-11T12:00:14;99667.47;;;20.10;80.53
35519;BME280;21627;48.216;16.482;2022-09-11T12:05:30;99692.50;;;20.41;75.81
35519;BME280;21627;48.216;16.482;2022-09-11T12:08:01;99682.78;;;20.43;77.00
35519;BME280;21627;48.216;16.482;2022-09-11T12:10:35;99675.25;;;20.56;76.84
35519;BME280;21627;48.216;16.482;2022-09-11T12:13:14;99669.69;;;20.84;75.61
35519;BME280;21627;48.216;16.482;2022-09-11T12:16:20;99675.47;;;20.92;71.92
35519;BME280;21627;48.216;16.482;2022-09-11T12:19:06;99682.38;;;20.74;70.46
35519;BME280;21627;48.216;16.482;2022-09-11T12:22:04;99690.03;;;20.59;71.29
35519;BME280;21627;48.216;16.482;2022-09-11T12:35:48;99681.69;;;20.49;69.72
35519;BME280;21627;48.216;16.482;2022-09-11T12:41:23;99674.81;;;20.87;71.76
35519;BME280;21627;48.216;16.482;2022-09-11T12:43:53;99658.91;;;20.90;67.57
35519;BME280;21627;48.216;16.482;2022-09-11T12:48:56;99655.84;;;21.20;69.65
35519;BME280;21627;48.216;16.482;2022-09-11T12:51:56;99660.75;;;21.47;69.00
35519;BME280;21627;48.216;16.482;2022-09-11T12:54:35;99652.66;;;21.70;69.94
35519;BME280;21627;48.216;16.482;2022-09-11T12:57:10;99645.09;;;21.81;63.54
35519;BME280;21627;48.216;16.482;2022-09-11T12:59:53;99660.63;;;21.88;64.93
35519;BME280;21627;48.216;16.482;2022-09-11T13:04:56;99649.72;;;21.95;64.27
35519;BME280;21627;48.216;16.482;2022-09-11T13:07:56;99642.47;;;22.18;61.67
35519;BME280;21627;48.216;16.482;2022-09-11T13:10:36;99652.88;;;22.38;62.40
35519;BME280;21627;48.216;16.482;2022-09-11T13:15:55;99636.97;;;22.57;60.38
35519;BME280;21627;48.216;16.482;2022-09-11T13:18:32;99640.94;;;22.66;59.44
35519;BME280;21627;48.216;16.482;2022-09-11T13:23:46;99650.13;;;22.92;58.06
35519;BME280;21627;48.216;16.482;2022-09-11T13:26:26;99646.56;;;22.93;57.67
35519;BME280;21627;48.216;16.482;2022-09-11T13:28:59;99641.28;;;22.93;57.64
35519;BME280;21627;48.216;16.482;2022-09-11T13:31:33;99620.88;;;22.97;57.64
35519;BME280;21627;48.216;16.482;2022-09-11T13:34:06;99628.59;;;23.17;57.76
35519;BME280;21627;48.216;16.482;2022-09-11T13:36:38;99618.88;;;23.18;56.98
35519;BME280;21627;48.216;16.482;2022-09-11T13:39:07;99628.72;;;23.31;57.24
35519;BME280;21627;48.216;16.482;2022-09-11T13:41:39;99644.88;;;23.57;56.09
35519;BME280;21627;48.216;16.482;2022-09-11T13:44:26;99646.16;;;23.66;54.09
35519;BME280;21627;48.216;16.482;2022-09-11T13:46:56;99652.91;;;23.71;54.50
35519;BME280;21627;48.216;16.482;2022-09-11T13:49:36;99641.94;;;23.79;56.26
35519;BME280;21627;48.216;16.482;2022-09-11T13:52:10;99633.72;;;23.84;56.26
35519;BME280;21627;48.216;16.482;2022-09-11T13:54:54;99632.88;;;23.83;55.22
35519;BME280;21627;48.216;16.482;2022-09-11T13:57:25;99649.72;;;24.12;56.13
35519;BME280;21627;48.216;16.482;2022-09-11T13:59:58;99648.31;;;24.21;54.89
35519;BME280;21627;48.216;16.482;2022-09-11T14:02:46;99639.63;;;24.19;55.01
35519;BME280;21627;48.216;16.482;2022-09-11T14:10:45;99659.47;;;24.26;54.77
35519;BME280;21627;48.216;16.482;2022-09-11T14:13:31;99668.63;;;24.21;55.50
35519;BME280;21627;48.216;16.482;2022-09-11T14:21:40;99656.81;;;24.12;55.25
35519;BME280;21627;48.216;16.482;2022-09-11T14:27:02;99650.41;;;24.46;55.13
35519;BME280;21627;48.216;16.482;2022-09-11T14:29:32;99632.13;;;24.57;55.22
35519;BME280;21627;48.216;16.482;2022-09-11T14:32:29;99652.00;;;24.93;54.88
35519;BME280;21627;48.216;16.482;2022-09-11T14:34:58;99640.31;;;24.97;53.12
35519;BME280;21627;48.216;16.482;2022-09-11T14:37:28;99648.41;;;24.94;51.78
35519;BME280;21627;48.216;16.482;2022-09-11T14:40:13;99636.88;;;25.10;51.97
35519;BME280;21627;48.216;16.482;2022-09-11T14:42:45;99639.19;;;25.30;50.92
35519;BME280;21627;48.216;16.482;2022-09-11T14:45:22;99637.28;;;25.03;50.99
35519;BME280;21627;48.216;16.482;2022-09-11T14:47:53;99643.03;;;24.96;51.95
35519;BME280;21627;48.216;16.482;2022-09-11T14:50:20;99648.56;;;24.77;52.92
35519;BME280;21627;48.216;16.482;2022-09-11T14:52:48;99644.28;;;24.46;52.99
35519;BME280;21627;48.216;16.482;2022-09-11T14:55:18;99636.50;;;24.12;54.47
35519;BME280;21627;48.216;16.482;2022-09-11T14:57:46;99635.63;;;23.82;58.71
35519;BME280;21627;48.216;16.482;2022-09-11T15:00:18;99642.16;;;23.43;58.45
35519;BME280;21627;48.216;16.482;2022-09-11T15:02:45;99635.47;;;22.86;61.41
35519;BME280;21627;48.216;16.482;2022-09-11T15:05:18;99639.22;;;22.47;62.24
35519;BME280;21627;48.216;16.482;2022-09-11T15:07:47;99642.41;;;22.19;62.13
35519;BME280;21627;48.216;16.482;2022-09-11T15:10:15;99643.84;;;22.08;63.63
35519;BME280;21627;48.216;16.482;2022-09-11T15:12:42;99639.97;;;21.97;66.14
35519;BME280;21627;48.216;16.482;2022-09-11T15:15:10;99642.19;;;21.88;65.56
35519;BME280;21627;48.216;16.482;2022-09-11T15:17:37;99634.78;;;21.77;66.90
35519;BME280;21627;48.216;16.482;2022-09-11T15:20:06;99625.16;;;21.58;66.04
35519;BME280;21627;48.216;16.482;2022-09-11T15:22:38;99616.28;;;21.42;66.95
35519;BME280;21627;48.216;16.482;2022-09-11T15:25:06;99639.50;;;21.32;64.97
35519;BME280;21627;48.216;16.482;2022-09-11T15:27:34;99636.78;;;21.15;66.69
35519;BME280;21627;48.216;16.482;2022-09-11T15:30:02;99634.50;;;21.07;70.18
35519;BME280;21627;48.216;16.482;2022-09-11T15:32:29;99630.59;;;20.97;75.62
35519;BME280;21627;48.216;16.482;2022-09-11T15:34:57;99634.31;;;20.91;78.20
35519;BME280;21627;48.216;16.482;2022-09-11T15:37:24;99627.00;;;20.79;83.40
35519;BME280;21627;48.216;16.482;2022-09-11T15:39:52;99641.31;;;20.72;86.45
35519;BME280;21627;48.216;16.482;2022-09-11T15:42:19;99660.75;;;20.68;87.43
35519;BME280;21627;48.216;16.482;2022-09-11T15:44:46;99724.28;;;20.57;83.18
35519;BME280;21627;48.216;16.482;2022-09-11T15:47:13;99776.22;;;20.27;87.83
35519;BME280;21627;48.216;16.482;2022-09-11T15:49:42;99791.16;;;19.56;88.00
35519;BME280;21627;48.216;16.482;2022-09-11T15:52:10;99765.34;;;18.67;95.11
35519;BME280;21627;48.216;16.482;2022-09-11T15:54:37;99772.16;;;17.89;100.00
35519;BME280;21627;48.216;16.482;2022-09-11T15:57:06;99780.50;;;17.40;100.00